sensor_id;sensor_type;location;lat;lon;timestamp;P1;durP1;ratioP1;P2;durP2;ratioP2
16472;SDS011;8347;52.486;13.432;2023-07-29T00:01:01;16.75;;;14.20;;
16472;SDS011;8347;52.486;13.432;2023-07-29T00:03:48;19.08;;;14.48;;
16472;SDS011;8347;52.486;13.432;2023-07-29T00:06:34;18.20;;;14.25;;
16472;SDS011;8347;52.486;13.432;2023-07-29T00:09:21;16.15;;;13.98;;
16472;SDS011;8347;52.486;13.432;2023-07-29T00:12:07;15.55;;;11.20;;
16472;SDS011;8347;52.486;13.432;2023-07-29T00:14:54;15.25;;;11.38;;
16472;SDS011;8347;52.486;13.432;2023-07-29T00:17:41;13.85;;;11.73;;
16472;SDS011;8347;52.486;13.432;2023-07-29T00:20:27;19.98;;;14.27;;
16472;SDS011;8347;52.486;13.432;2023-07-29T00:23:13;13.00;;;10.93;;
16472;SDS011;8347;52.486;13.432;2023-07-29T00:26:00;18.48;;;13.48;;
16472;SDS011;8347;52.486;13.432;2023-07-29T00:28:46;13.20;;;11.20;;
16472;SDS011;8347;52.486;13.432;2023-07-29T00:31:33;10.85;;;9.65;;
16472;SDS011;8347;52.486;13.432;2023-07-29T00:34:19;9.93;;;8.77;;
16472;SDS011;8347;52.486;13.432;2023-07-29T00:37:06;14.43;;;10.18;;
16472;SDS011;8347;52.486;13.432;2023-07-29T00:39:52;12.63;;;10.45;;
16472;SDS011;8347;52.486;13.432;2023-07-29T00:42:39;10.85;;;9.75;;
16472;SDS011;8347;52.486;13.432;2023-07-29T00:45:25;11.77;;;10.55;;
16472;SDS011;8347;52.486;13.432;2023-07-29T00:48:13;13.75;;;12.00;;
16472;SDS011;8347;52.486;13.432;2023-07-29T00:50:59;13.00;;;10.95;;
16472;SDS011;8347;52.486;13.432;2023-07-29T00:53:47;15.15;;;11.32;;
16472;SDS011;8347;52.486;13.432;2023-07-29T00:56:33;13.10;;;10.55;;
16472;SDS011;8347;52.486;13.432;2023-07-29T00:59:20;12.60;;;10.75;;
16472;SDS011;8347;52.486;13.432;2023-07-29T01:02:06;12.15;;;10.90;;
16472;SDS011;8347;52.486;13.432;2023-07-29T01:04:53;16.25;;;10.57;;
16472;SDS011;8347;52.486;13.432;2023-07-29T01:08:25;13.35;;;10.50;;
16472;SDS011;8347;52.486;13.432;2023-07-29T01:14:25;13.93;;;11.00;;
16472;SDS011;8347;52.486;13.432;2023-07-29T01:17:18;10.45;;;9.35;;
16472;SDS011;8347;52.486;13.432;2023-07-29T01:20:08;11.82;;;10.10;;
16472;SDS011;8347;52.486;13.432;2023-07-29T01:22:57;14.43;;;11.25;;
16472;SDS011;8347;52.486;13.432;2023-07-29T01:25:43;15.57;;;10.43;;
16472;SDS011;8347;52.486;13.432;2023-07-29T01:28:30;12.23;;;10.30;;
16472;SDS011;8347;52.486;13.432;2023-07-29T01:31:20;12.55;;;10.90;;
16472;SDS011;8347;52.486;13.432;2023-07-29T01:34:17;11.05;;;9.63;;
16472;SDS011;8347;52.486;13.432;2023-07-29T01:37:09;13.55;;;11.65;;
16472;SDS011;8347;52.486;13.432;2023-07-29T01:40:03;10.93;;;8.80;;
16472;SDS011;8347;52.486;13.432;2023-07-29T01:42:50;12.48;;;10.10;;
16472;SDS011;8347;52.486;13.432;2023-07-29T01:45:37;10.95;;;9.80;;
16472;SDS011;8347;52.486;13.432;2023-07-29T01:48:24;11.65;;;10.00;;
16472;SDS011;8347;52.486;13.432;2023-07-29T01:51:11;13.88;;;11.40;;
16472;SDS011;8347;52.486;13.432;2023-07-29T01:53:58;11.35;;;9.80;;
16472;SDS011;8347;52.486;13.432;2023-07-29T01:56:45;10.70;;;9.55;;
16472;SDS011;8347;52.486;13.432;2023-07-29T01:59:32;13.27;;;9.75;;
16472;SDS011;8347;52.486;13.432;2023-07-29T02:02:19;10.48;;;9.48;;
16472;SDS011;8347;52.486;13.432;2023-07-29T02:05:05;11.35;;;10.10;;
16472;SDS011;8347;52.486;13.432;2023-07-29T02:07:51;11.20;;;9.57;;
16472;SDS011;8347;52.486;13.432;2023-07-29T02:10:38;11.18;;;9.93;;
16472;SDS011;8347;52.486;13.432;2023-07-29T02:13:24;11.50;;;10.05;;
16472;SDS011;8347;52.486;13.432;2023-07-29T02:16:11;13.55;;;10.30;;
16472;SDS011;8347;52.486;13.432;2023-07-29T02:18:57;23.80;;;9.90;;
16472;SDS011;8347;52.486;13.432;2023-07-29T02:21:44;10.93;;;9.82;;
16472;SDS011;8347;52.486;13.432;2023-07-29T02:24:30;10.70;;;9.60;;
16472;SDS011;8347;52.486;13.432;2023-07-29T02:27:17;12.75;;;9.25;;
16472;SDS011;8347;52.486;13.432;2023-07-29T02:30:04;11.43;;;10.23;;
16472;SDS011;8347;52.486;13.432;2023-07-29T02:32:51;13.07;;;9.95;;
16472;SDS011;8347;52.486;13.432;2023-07-29T02:35:37;13.65;;;9.23;;
16472;SDS011;8347;52.486;13.432;2023-07-29T02:38:24;11.15;;;9.68;;
16472;SDS011;8347;52.486;13.432;2023-07-29T02:41:11;11.88;;;9.55;;
16472;SDS011;8347;52.486;13.432;2023-07-29T02:43:58;10.02;;;8.98;;
16472;SDS011;8347;52.486;13.432;2023-07-29T02:46:45;10.85;;;8.93;;
16472;SDS011;8347;52.486;13.432;2023-07-29T02:49:31;11.38;;;10.18;;
16472;SDS011;8347;52.486;13.432;2023-07-29T02:52:18;11.25;;;10.00;;
16472;SDS011;8347;52.486;13.432;2023-07-29T02:55:05;11.32;;;9.50;;
16472;SDS011;8347;52.486;13.432;2023-07-29T02:57:51;10.68;;;8.52;;
16472;SDS011;8347;52.486;13.432;2023-07-29T03:00:38;12.45;;;9.15;;
16472;SDS011;8347;52.486;13.432;2023-07-29T03:03:27;11.02;;;9.90;;
16472;SDS011;8347;52.486;13.432;2023-07-29T03:06:14;12.23;;;9.05;;
16472;SDS011;8347;52.486;13.432;2023-07-29T03:09:01;10.65;;;9.00;;
16472;SDS011;8347;52.486;13.432;2023-07-29T03:11:48;11.63;;;9.73;;
16472;SDS011;8347;52.486;13.432;2023-07-29T03:14:34;11.20;;;9.63;;
16472;SDS011;8347;52.486;13.432;2023-07-29T03:17:21;10.77;;;9.68;;
16472;SDS011;8347;52.486;13.432;2023-07-29T03:20:07;12.40;;;9.32;;
16472;SDS011;8347;52.486;13.432;2023-07-29T03:22:54;12.63;;;9.80;;
16472;SDS011;8347;52.486;13.432;2023-07-29T03:25:40;10.65;;;9.55;;
16472;SDS011;8347;52.486;13.432;2023-07-29T03:28:28;9.35;;;8.43;;
16472;SDS011;8347;52.486;13.432;2023-07-29T03:31:15;10.73;;;9.57;;
16472;SDS011;8347;52.486;13.432;2023-07-29T03:34:02;11.57;;;9.77;;
16472;SDS011;8347;52.486;13.432;2023-07-29T03:36:49;11.30;;;9.80;;
16472;SDS011;8347;52.486;13.432;2023-07-29T03:39:37;10.52;;;9.40;;
16472;SDS011;8347;52.486;13.432;2023-07-29T03:42:23;11.90;;;9.43;;
16472;SDS011;8347;52.486;13.432;2023-07-29T03:45:10;10.60;;;9.40;;
16472;SDS011;8347;52.486;13.432;2023-07-29T03:47:56;10.65;;;9.55;;
16472;SDS011;8347;52.486;13.432;2023-07-29T03:50:42;13.18;;;9.90;;
16472;SDS011;8347;52.486;13.432;2023-07-29T03:53:29;11.85;;;9.07;;
16472;SDS011;8347;52.486;13.432;2023-07-29T03:56:15;10.23;;;9.20;;
16472;SDS011;8347;52.486;13.432;2023-07-29T03:59:02;11.40;;;10.20;;
16472;SDS011;8347;52.486;13.432;2023-07-29T04:01:50;11.55;;;9.48;;
16472;SDS011;8347;52.486;13.432;2023-07-29T04:04:36;10.55;;;9.27;;
16472;SDS011;8347;52.486;13.432;2023-07-29T04:07:23;11.32;;;9.48;;
16472;SDS011;8347;52.486;13.432;2023-07-29T04:10:10;10.48;;;9.00;;
16472;SDS011;8347;52.486;13.432;2023-07-29T04:12:57;10.90;;;9.75;;
16472;SDS011;8347;52.486;13.432;2023-07-29T04:15:44;10.25;;;8.82;;
16472;SDS011;8347;52.486;13.432;2023-07-29T04:18:31;9.13;;;8.20;;
16472;SDS011;8347;52.486;13.432;2023-07-29T04:21:17;11.32;;;8.80;;
16472;SDS011;8347;52.486;13.432;2023-07-29T04:24:03;11.32;;;8.93;;
16472;SDS011;8347;52.486;13.432;2023-07-29T04:26:50;9.52;;;8.55;;
16472;SDS011;8347;52.486;13.432;2023-07-29T04:29:36;8.77;;;7.82;;
16472;SDS011;8347;52.486;13.432;2023-07-29T04:32:24;9.95;;;8.05;;
16472;SDS011;8347;52.486;13.432;2023-07-29T04:35:13;10.07;;;8.40;;
16472;SDS011;8347;52.486;13.432;2023-07-29T04:38:00;10.93;;;8.55;;
16472;SDS011;8347;52.486;13.432;2023-07-29T04:40:48;8.40;;;7.30;;
16472;SDS011;8347;52.486;13.432;2023-07-29T04:43:35;8.02;;;7.22;;
16472;SDS011;8347;52.486;13.432;2023-07-29T04:46:21;9.18;;;8.20;;
16472;SDS011;8347;52.486;13.432;2023-07-29T04:49:07;8.63;;;7.70;;
16472;SDS011;8347;52.486;13.432;2023-07-29T04:51:54;9.27;;;8.23;;
16472;SDS011;8347;52.486;13.432;2023-07-29T04:54:40;8.48;;;7.63;;
16472;SDS011;8347;52.486;13.432;2023-07-29T04:57:27;8.65;;;7.72;;
16472;SDS011;8347;52.486;13.432;2023-07-29T05:00:14;8.57;;;7.63;;
16472;SDS011;8347;52.486;13.432;2023-07-29T05:03:01;7.85;;;7.03;;
16472;SDS011;8347;52.486;13.432;2023-07-29T05:05:48;8.50;;;7.13;;
16472;SDS011;8347;52.486;13.432;2023-07-29T05:08:36;6.95;;;6.30;;
16472;SDS011;8347;52.486;13.432;2023-07-29T05:11:22;7.65;;;6.60;;
16472;SDS011;8347;52.486;13.432;2023-07-29T05:14:12;7.03;;;6.40;;
16472;SDS011;8347;52.486;13.432;2023-07-29T05:16:59;7.03;;;6.30;;
16472;SDS011;8347;52.486;13.432;2023-07-29T05:19:46;6.43;;;5.82;;
16472;SDS011;8347;52.486;13.432;2023-07-29T05:22:32;13.50;;;10.20;;
16472;SDS011;8347;52.486;13.432;2023-07-29T05:25:19;10.77;;;9.43;;
16472;SDS011;8347;52.486;13.432;2023-07-29T05:28:05;7.57;;;6.78;;
16472;SDS011;8347;52.486;13.432;2023-07-29T05:30:51;11.20;;;8.20;;
16472;SDS011;8347;52.486;13.432;2023-07-29T05:33:38;7.03;;;6.30;;
16472;SDS011;8347;52.486;13.432;2023-07-29T05:36:26;8.32;;;6.20;;
16472;SDS011;8347;52.486;13.432;2023-07-29T05:39:13;5.68;;;4.85;;
16472;SDS011;8347;52.486;13.432;2023-07-29T05:41:59;8.55;;;5.20;;
16472;SDS011;8347;52.486;13.432;2023-07-29T05:44:48;7.30;;;5.43;;
16472;SDS011;8347;52.486;13.432;2023-07-29T05:47:34;7.20;;;5.57;;
16472;SDS011;8347;52.486;13.432;2023-07-29T05:50:21;8.90;;;5.35;;
16472;SDS011;8347;52.486;13.432;2023-07-29T05:53:08;6.28;;;5.68;;
16472;SDS011;8347;52.486;13.432;2023-07-29T05:55:54;5.90;;;5.30;;
16472;SDS011;8347;52.486;13.432;2023-07-29T05:58:40;5.80;;;5.30;;
16472;SDS011;8347;52.486;13.432;2023-07-29T06:01:27;5.55;;;5.05;;
16472;SDS011;8347;52.486;13.432;2023-07-29T06:04:14;11.85;;;6.40;;
16472;SDS011;8347;52.486;13.432;2023-07-29T06:07:00;10.10;;;6.95;;
16472;SDS011;8347;52.486;13.432;2023-07-29T06:09:47;7.88;;;6.68;;
16472;SDS011;8347;52.486;13.432;2023-07-29T06:12:33;7.45;;;6.53;;
16472;SDS011;8347;52.486;13.432;2023-07-29T06:15:20;7.80;;;5.10;;
16472;SDS011;8347;52.486;13.432;2023-07-29T06:18:08;8.02;;;6.00;;
16472;SDS011;8347;52.486;13.432;2023-07-29T06:20:55;6.00;;;5.00;;
16472;SDS011;8347;52.486;13.432;2023-07-29T06:23:41;5.93;;;4.90;;
16472;SDS011;8347;52.486;13.432;2023-07-29T06:26:28;12.60;;;8.45;;
16472;SDS011;8347;52.486;13.432;2023-07-29T06:29:14;6.45;;;5.78;;
16472;SDS011;8347;52.486;13.432;2023-07-29T06:32:01;6.97;;;4.97;;
16472;SDS011;8347;52.486;13.432;2023-07-29T06:34:47;5.25;;;4.75;;
16472;SDS011;8347;52.486;13.432;2023-07-29T06:37:34;4.82;;;3.90;;
16472;SDS011;8347;52.486;13.432;2023-07-29T06:40:21;9.52;;;4.85;;
16472;SDS011;8347;52.486;13.432;2023-07-29T06:43:07;4.65;;;4.15;;
16472;SDS011;8347;52.486;13.432;2023-07-29T06:45:53;5.50;;;3.95;;
16472;SDS011;8347;52.486;13.432;2023-07-29T06:48:41;4.03;;;3.60;;
16472;SDS011;8347;52.486;13.432;2023-07-29T06:51:27;4.18;;;3.78;;
16472;SDS011;8347;52.486;13.432;2023-07-29T06:54:18;3.80;;;3.50;;
16472;SDS011;8347;52.486;13.432;2023-07-29T06:57:04;4.22;;;3.80;;
16472;SDS011;8347;52.486;13.432;2023-07-29T06:59:51;6.97;;;4.22;;
16472;SDS011;8347;52.486;13.432;2023-07-29T07:02:37;3.80;;;3.50;;
16472;SDS011;8347;52.486;13.432;2023-07-29T07:05:24;4.75;;;4.13;;
16472;SDS011;8347;52.486;13.432;2023-07-29T07:08:11;6.95;;;4.15;;
16472;SDS011;8347;52.486;13.432;2023-07-29T07:10:57;6.78;;;4.35;;
16472;SDS011;8347;52.486;13.432;2023-07-29T07:13:44;5.30;;;4.80;;
16472;SDS011;8347;52.486;13.432;2023-07-29T07:16:30;10.98;;;8.80;;
16472;SDS011;8347;52.486;13.432;2023-07-29T07:19:17;6.35;;;5.55;;
16472;SDS011;8347;52.486;13.432;2023-07-29T07:22:04;10.15;;;6.90;;
16472;SDS011;8347;52.486;13.432;2023-07-29T07:24:50;14.95;;;10.65;;
16472;SDS011;8347;52.486;13.432;2023-07-29T07:27:36;9.00;;;7.93;;
16472;SDS011;8347;52.486;13.432;2023-07-29T07:30:23;7.20;;;6.07;;
16472;SDS011;8347;52.486;13.432;2023-07-29T07:33:09;4.13;;;3.75;;
16472;SDS011;8347;52.486;13.432;2023-07-29T07:35:56;4.15;;;3.85;;
16472;SDS011;8347;52.486;13.432;2023-07-29T07:38:42;3.97;;;3.58;;
16472;SDS011;8347;52.486;13.432;2023-07-29T07:41:29;4.93;;;4.43;;
16472;SDS011;8347;52.486;13.432;2023-07-29T07:44:15;9.48;;;4.75;;
16472;SDS011;8347;52.486;13.432;2023-07-29T07:47:03;5.05;;;4.47;;
16472;SDS011;8347;52.486;13.432;2023-07-29T07:49:49;4.60;;;4.15;;
16472;SDS011;8347;52.486;13.432;2023-07-29T07:52:36;6.78;;;3.90;;
16472;SDS011;8347;52.486;13.432;2023-07-29T07:55:22;3.97;;;3.53;;
16472;SDS011;8347;52.486;13.432;2023-07-29T07:58:09;3.97;;;3.58;;
16472;SDS011;8347;52.486;13.432;2023-07-29T08:01:02;8.88;;;6.85;;
16472;SDS011;8347;52.486;13.432;2023-07-29T08:03:49;7.63;;;6.05;;
16472;SDS011;8347;52.486;13.432;2023-07-29T08:06:36;9.57;;;6.22;;
16472;SDS011;8347;52.486;13.432;2023-07-29T08:09:23;4.72;;;4.22;;
16472;SDS011;8347;52.486;13.432;2023-07-29T08:12:09;6.25;;;4.30;;
16472;SDS011;8347;52.486;13.432;2023-07-29T08:14:56;3.65;;;2.97;;
16472;SDS011;8347;52.486;13.432;2023-07-29T08:17:42;4.57;;;3.53;;
16472;SDS011;8347;52.486;13.432;2023-07-29T08:20:29;3.63;;;3.33;;
16472;SDS011;8347;52.486;13.432;2023-07-29T08:23:15;3.78;;;2.92;;
16472;SDS011;8347;52.486;13.432;2023-07-29T08:26:03;4.50;;;3.72;;
16472;SDS011;8347;52.486;13.432;2023-07-29T08:28:50;3.90;;;3.30;;
16472;SDS011;8347;52.486;13.432;2023-07-29T08:31:37;3.38;;;3.08;;
16472;SDS011;8347;52.486;13.432;2023-07-29T08:34:24;5.18;;;3.50;;
16472;SDS011;8347;52.486;13.432;2023-07-29T08:37:11;5.78;;;3.72;;
16472;SDS011;8347;52.486;13.432;2023-07-29T08:39:57;6.55;;;3.85;;
16472;SDS011;8347;52.486;13.432;2023-07-29T08:42:44;4.32;;;3.58;;
16472;SDS011;8347;52.486;13.432;2023-07-29T08:45:34;3.53;;;3.22;;
16472;SDS011;8347;52.486;13.432;2023-07-29T08:48:23;3.80;;;3.17;;
16472;SDS011;8347;52.486;13.432;2023-07-29T08:51:25;4.13;;;3.65;;
16472;SDS011;8347;52.486;13.432;2023-07-29T08:54:12;3.92;;;3.13;;
16472;SDS011;8347;52.486;13.432;2023-07-29T08:56:59;4.22;;;3.38;;
16472;SDS011;8347;52.486;13.432;2023-07-29T08:59:46;3.53;;;3.13;;
16472;SDS011;8347;52.486;13.432;2023-07-29T09:02:32;3.50;;;3.20;;
16472;SDS011;8347;52.486;13.432;2023-07-29T09:05:20;3.10;;;2.75;;
16472;SDS011;8347;52.486;13.432;2023-07-29T09:08:07;5.70;;;3.65;;
16472;SDS011;8347;52.486;13.432;2023-07-29T09:10:54;3.38;;;3.08;;
16472;SDS011;8347;52.486;13.432;2023-07-29T09:13:41;3.70;;;3.40;;
16472;SDS011;8347;52.486;13.432;2023-07-29T09:16:28;9.70;;;8.35;;
16472;SDS011;8347;52.486;13.432;2023-07-29T09:19:15;5.85;;;5.25;;
16472;SDS011;8347;52.486;13.432;2023-07-29T09:22:01;3.58;;;3.28;;
16472;SDS011;8347;52.486;13.432;2023-07-29T09:24:48;3.45;;;3.05;;
16472;SDS011;8347;52.486;13.432;2023-07-29T09:27:35;5.53;;;3.40;;
16472;SDS011;8347;52.486;13.432;2023-07-29T09:30:25;7.15;;;3.58;;
16472;SDS011;8347;52.486;13.432;2023-07-29T09:33:12;3.80;;;3.35;;
16472;SDS011;8347;52.486;13.432;2023-07-29T09:35:59;3.78;;;3.47;;
16472;SDS011;8347;52.486;13.432;2023-07-29T09:38:45;4.38;;;2.95;;
16472;SDS011;8347;52.486;13.432;2023-07-29T09:41:32;4.47;;;3.35;;
16472;SDS011;8347;52.486;13.432;2023-07-29T09:44:18;3.30;;;3.00;;
16472;SDS011;8347;52.486;13.432;2023-07-29T09:47:04;3.20;;;2.70;;
16472;SDS011;8347;52.486;13.432;2023-07-29T09:49:53;2.88;;;2.67;;
16472;SDS011;8347;52.486;13.432;2023-07-29T09:52:40;3.17;;;2.88;;
16472;SDS011;8347;52.486;13.432;2023-07-29T09:55:27;3.80;;;3.45;;
16472;SDS011;8347;52.486;13.432;2023-07-29T09:58:13;4.22;;;3.65;;
16472;SDS011;8347;52.486;13.432;2023-07-29T10:01:00;4.45;;;3.53;;
16472;SDS011;8347;52.486;13.432;2023-07-29T10:03:47;3.75;;;3.00;;
16472;SDS011;8347;52.486;13.432;2023-07-29T10:06:35;3.25;;;2.92;;
16472;SDS011;8347;52.486;13.432;2023-07-29T10:09:21;3.05;;;2.55;;
16472;SDS011;8347;52.486;13.432;2023-07-29T10:12:09;2.92;;;2.50;;
16472;SDS011;8347;52.486;13.432;2023-07-29T10:14:59;8.27;;;4.53;;
16472;SDS011;8347;52.486;13.432;2023-07-29T10:17:46;3.20;;;2.38;;
16472;SDS011;8347;52.486;13.432;2023-07-29T10:20:33;2.72;;;2.53;;
16472;SDS011;8347;52.486;13.432;2023-07-29T10:23:21;3.20;;;2.83;;
16472;SDS011;8347;52.486;13.432;2023-07-29T10:26:09;4.57;;;2.47;;
16472;SDS011;8347;52.486;13.432;2023-07-29T10:28:56;3.42;;;2.60;;
16472;SDS011;8347;52.486;13.432;2023-07-29T10:31:53;7.25;;;6.50;;
16472;SDS011;8347;52.486;13.432;2023-07-29T10:34:41;5.20;;;3.15;;
16472;SDS011;8347;52.486;13.432;2023-07-29T10:37:28;4.57;;;3.10;;
16472;SDS011;8347;52.486;13.432;2023-07-29T10:40:15;5.60;;;3.20;;
16472;SDS011;8347;52.486;13.432;2023-07-29T10:43:03;3.55;;;3.13;;
16472;SDS011;8347;52.486;13.432;2023-07-29T10:45:50;3.17;;;2.60;;
16472;SDS011;8347;52.486;13.432;2023-07-29T10:48:40;4.50;;;2.78;;
16472;SDS011;8347;52.486;13.432;2023-07-29T10:51:35;2.65;;;2.45;;
16472;SDS011;8347;52.486;13.432;2023-07-29T10:54:22;3.05;;;2.83;;
16472;SDS011;8347;52.486;13.432;2023-07-29T10:57:16;3.40;;;2.50;;
16472;SDS011;8347;52.486;13.432;2023-07-29T11:00:23;2.28;;;1.95;;
16472;SDS011;8347;52.486;13.432;2023-07-29T11:03:16;3.97;;;2.67;;
16472;SDS011;8347;52.486;13.432;2023-07-29T11:06:04;4.60;;;3.55;;
16472;SDS011;8347;52.486;13.432;2023-07-29T11:08:51;3.72;;;2.95;;
16472;SDS011;8347;52.486;13.432;2023-07-29T11:11:38;4.10;;;3.60;;
16472;SDS011;8347;52.486;13.432;2023-07-29T11:14:25;3.30;;;2.90;;
16472;SDS011;8347;52.486;13.432;2023-07-29T11:17:11;4.18;;;2.75;;
16472;SDS011;8347;52.486;13.432;2023-07-29T11:20:00;6.18;;;4.03;;
16472;SDS011;8347;52.486;13.432;2023-07-29T11:22:47;13.70;;;4.32;;
16472;SDS011;8347;52.486;13.432;2023-07-29T11:25:34;12.05;;;4.55;;
16472;SDS011;8347;52.486;13.432;2023-07-29T11:28:21;16.08;;;5.45;;
16472;SDS011;8347;52.486;13.432;2023-07-29T11:31:08;5.95;;;3.03;;
16472;SDS011;8347;52.486;13.432;2023-07-29T11:33:54;7.85;;;3.75;;
16472;SDS011;8347;52.486;13.432;2023-07-29T11:36:44;3.60;;;2.70;;
16472;SDS011;8347;52.486;13.432;2023-07-29T11:39:31;7.45;;;3.30;;
16472;SDS011;8347;52.486;13.432;2023-07-29T11:42:18;3.72;;;3.08;;
16472;SDS011;8347;52.486;13.432;2023-07-29T11:45:05;2.75;;;2.05;;
16472;SDS011;8347;52.486;13.432;2023-07-29T11:47:52;3.63;;;2.05;;
16472;SDS011;8347;52.486;13.432;2023-07-29T11:50:39;5.07;;;2.70;;
16472;SDS011;8347;52.486;13.432;2023-07-29T11:53:26;3.47;;;2.40;;
16472;SDS011;8347;52.486;13.432;2023-07-29T11:56:15;4.50;;;2.92;;
16472;SDS011;8347;52.486;13.432;2023-07-29T11:59:01;4.75;;;1.85;;
16472;SDS011;8347;52.486;13.432;2023-07-29T12:01:49;2.83;;;2.03;;
16472;SDS011;8347;52.486;13.432;2023-07-29T12:04:35;1.95;;;1.75;;
16472;SDS011;8347;52.486;13.432;2023-07-29T12:07:23;2.10;;;1.90;;
16472;SDS011;8347;52.486;13.432;2023-07-29T12:10:10;1.70;;;1.60;;
16472;SDS011;8347;52.486;13.432;2023-07-29T12:12:56;3.05;;;2.10;;
16472;SDS011;8347;52.486;13.432;2023-07-29T12:15:43;5.38;;;3.72;;
16472;SDS011;8347;52.486;13.432;2023-07-29T12:18:30;5.03;;;4.38;;
16472;SDS011;8347;52.486;13.432;2023-07-29T12:21:20;4.63;;;3.20;;
16472;SDS011;8347;52.486;13.432;2023-07-29T12:24:07;5.10;;;3.50;;
16472;SDS011;8347;52.486;13.432;2023-07-29T12:26:54;5.20;;;4.32;;
16472;SDS011;8347;52.486;13.432;2023-07-29T12:29:42;7.65;;;6.03;;
16472;SDS011;8347;52.486;13.432;2023-07-29T12:32:29;5.70;;;4.35;;
16472;SDS011;8347;52.486;13.432;2023-07-29T12:35:15;8.25;;;6.10;;
16472;SDS011;8347;52.486;13.432;2023-07-29T12:38:02;9.40;;;7.38;;
16472;SDS011;8347;52.486;13.432;2023-07-29T12:40:48;9.50;;;6.78;;
16472;SDS011;8347;52.486;13.432;2023-07-29T12:43:35;10.43;;;7.68;;
16472;SDS011;8347;52.486;13.432;2023-07-29T12:46:21;8.95;;;6.88;;
16472;SDS011;8347;52.486;13.432;2023-07-29T12:49:07;17.55;;;11.93;;
16472;SDS011;8347;52.486;13.432;2023-07-29T12:51:54;22.40;;;12.98;;
16472;SDS011;8347;52.486;13.432;2023-07-29T12:54:44;8.63;;;6.65;;
16472;SDS011;8347;52.486;13.432;2023-07-29T12:57:31;6.97;;;5.07;;
16472;SDS011;8347;52.486;13.432;2023-07-29T13:00:17;7.45;;;3.85;;
16472;SDS011;8347;52.486;13.432;2023-07-29T13:03:04;5.22;;;4.07;;
16472;SDS011;8347;52.486;13.432;2023-07-29T13:05:51;7.07;;;5.78;;
16472;SDS011;8347;52.486;13.432;2023-07-29T13:08:38;12.75;;;9.30;;
16472;SDS011;8347;52.486;13.432;2023-07-29T13:11:24;10.90;;;8.30;;
16472;SDS011;8347;52.486;13.432;2023-07-29T13:14:11;17.35;;;11.32;;
16472;SDS011;8347;52.486;13.432;2023-07-29T13:16:58;14.13;;;8.35;;
16472;SDS011;8347;52.486;13.432;2023-07-29T13:19:44;10.60;;;8.50;;
16472;SDS011;8347;52.486;13.432;2023-07-29T13:22:30;8.13;;;6.05;;
16472;SDS011;8347;52.486;13.432;2023-07-29T13:25:17;5.30;;;4.80;;
16472;SDS011;8347;52.486;13.432;2023-07-29T13:28:03;6.30;;;5.65;;
16472;SDS011;8347;52.486;13.432;2023-07-29T13:30:50;13.98;;;9.60;;
16472;SDS011;8347;52.486;13.432;2023-07-29T13:33:37;17.67;;;12.32;;
16472;SDS011;8347;52.486;13.432;2023-07-29T13:36:23;11.77;;;8.30;;
16472;SDS011;8347;52.486;13.432;2023-07-29T13:39:10;9.50;;;7.75;;
16472;SDS011;8347;52.486;13.432;2023-07-29T13:41:56;6.18;;;4.95;;
16472;SDS011;8347;52.486;13.432;2023-07-29T13:44:43;4.95;;;4.18;;
16472;SDS011;8347;52.486;13.432;2023-07-29T13:47:29;3.70;;;3.00;;
16472;SDS011;8347;52.486;13.432;2023-07-29T13:50:16;6.40;;;5.18;;
16472;SDS011;8347;52.486;13.432;2023-07-29T13:53:03;6.03;;;4.85;;
16472;SDS011;8347;52.486;13.432;2023-07-29T13:55:50;5.82;;;4.40;;
16472;SDS011;8347;52.486;13.432;2023-07-29T13:58:36;4.97;;;3.72;;
16472;SDS011;8347;52.486;13.432;2023-07-29T14:01:22;10.30;;;7.53;;
16472;SDS011;8347;52.486;13.432;2023-07-29T14:04:09;6.70;;;5.22;;
16472;SDS011;8347;52.486;13.432;2023-07-29T14:06:55;4.80;;;3.85;;
16472;SDS011;8347;52.486;13.432;2023-07-29T14:09:42;5.63;;;4.60;;
16472;SDS011;8347;52.486;13.432;2023-07-29T14:12:28;3.70;;;3.33;;
16472;SDS011;8347;52.486;13.432;2023-07-29T14:15:15;3.88;;;2.90;;
16472;SDS011;8347;52.486;13.432;2023-07-29T14:18:01;4.47;;;3.55;;
16472;SDS011;8347;52.486;13.432;2023-07-29T14:20:48;3.13;;;2.70;;
16472;SDS011;8347;52.486;13.432;2023-07-29T14:23:37;2.63;;;2.20;;
16472;SDS011;8347;52.486;13.432;2023-07-29T14:26:23;2.85;;;2.60;;
16472;SDS011;8347;52.486;13.432;2023-07-29T14:29:10;3.00;;;2.70;;
16472;SDS011;8347;52.486;13.432;2023-07-29T14:31:56;4.05;;;3.17;;
16472;SDS011;8347;52.486;13.432;2023-07-29T14:34:43;17.38;;;12.88;;
16472;SDS011;8347;52.486;13.432;2023-07-29T14:37:30;25.70;;;17.45;;
16472;SDS011;8347;52.486;13.432;2023-07-29T14:40:17;16.95;;;12.48;;
16472;SDS011;8347;52.486;13.432;2023-07-29T14:43:03;12.30;;;7.50;;
16472;SDS011;8347;52.486;13.432;2023-07-29T14:45:50;4.35;;;3.22;;
16472;SDS011;8347;52.486;13.432;2023-07-29T14:48:36;5.30;;;3.72;;
16472;SDS011;8347;52.486;13.432;2023-07-29T14:51:23;7.00;;;5.05;;
16472;SDS011;8347;52.486;13.432;2023-07-29T14:54:09;6.88;;;5.25;;
16472;SDS011;8347;52.486;13.432;2023-07-29T14:56:56;12.82;;;7.93;;
16472;SDS011;8347;52.486;13.432;2023-07-29T14:59:42;8.50;;;6.97;;
16472;SDS011;8347;52.486;13.432;2023-07-29T15:02:30;8.80;;;6.57;;
16472;SDS011;8347;52.486;13.432;2023-07-29T15:05:16;5.35;;;4.60;;
16472;SDS011;8347;52.486;13.432;2023-07-29T15:08:03;9.10;;;7.03;;
16472;SDS011;8347;52.486;13.432;2023-07-29T15:10:49;6.07;;;4.80;;
16472;SDS011;8347;52.486;13.432;2023-07-29T15:13:36;7.68;;;4.72;;
16472;SDS011;8347;52.486;13.432;2023-07-29T15:16:23;5.70;;;4.45;;
16472;SDS011;8347;52.486;13.432;2023-07-29T15:19:10;5.20;;;3.65;;
16472;SDS011;8347;52.486;13.432;2023-07-29T15:21:56;6.00;;;5.10;;
16472;SDS011;8347;52.486;13.432;2023-07-29T15:24:43;8.82;;;6.28;;
16472;SDS011;8347;52.486;13.432;2023-07-29T15:27:29;27.83;;;15.43;;
16472;SDS011;8347;52.486;13.432;2023-07-29T15:30:16;23.77;;;14.98;;
16472;SDS011;8347;52.486;13.432;2023-07-29T15:33:03;19.92;;;13.40;;
16472;SDS011;8347;52.486;13.432;2023-07-29T15:35:50;19.05;;;12.00;;
16472;SDS011;8347;52.486;13.432;2023-07-29T15:38:37;13.27;;;8.82;;
16472;SDS011;8347;52.486;13.432;2023-07-29T15:41:24;11.88;;;7.53;;
16472;SDS011;8347;52.486;13.432;2023-07-29T15:44:11;11.35;;;5.05;;
16472;SDS011;8347;52.486;13.432;2023-07-29T15:46:57;6.78;;;2.60;;
16472;SDS011;8347;52.486;13.432;2023-07-29T15:49:44;4.03;;;3.25;;
16472;SDS011;8347;52.486;13.432;2023-07-29T15:52:31;6.97;;;3.00;;
16472;SDS011;8347;52.486;13.432;2023-07-29T15:55:17;10.50;;;4.72;;
16472;SDS011;8347;52.486;13.432;2023-07-29T15:58:04;6.35;;;3.85;;
16472;SDS011;8347;52.486;13.432;2023-07-29T16:00:50;4.57;;;3.63;;
16472;SDS011;8347;52.486;13.432;2023-07-29T16:03:36;6.10;;;3.95;;
16472;SDS011;8347;52.486;13.432;2023-07-29T16:06:26;9.98;;;5.15;;
16472;SDS011;8347;52.486;13.432;2023-07-29T16:09:13;6.68;;;5.28;;
16472;SDS011;8347;52.486;13.432;2023-07-29T16:11:59;6.22;;;4.97;;
16472;SDS011;8347;52.486;13.432;2023-07-29T16:14:49;7.80;;;5.32;;
16472;SDS011;8347;52.486;13.432;2023-07-29T16:17:36;13.57;;;8.98;;
16472;SDS011;8347;52.486;13.432;2023-07-29T16:20:23;33.10;;;22.38;;
16472;SDS011;8347;52.486;13.432;2023-07-29T16:23:10;44.63;;;26.23;;
16472;SDS011;8347;52.486;13.432;2023-07-29T16:25:56;33.13;;;20.73;;
16472;SDS011;8347;52.486;13.432;2023-07-29T16:28:43;50.63;;;29.63;;
16472;SDS011;8347;52.486;13.432;2023-07-29T16:31:30;50.92;;;28.33;;
16472;SDS011;8347;52.486;13.432;2023-07-29T16:34:16;33.13;;;19.08;;
16472;SDS011;8347;52.486;13.432;2023-07-29T16:37:04;23.30;;;16.00;;
16472;SDS011;8347;52.486;13.432;2023-07-29T16:39:51;12.10;;;8.90;;
16472;SDS011;8347;52.486;13.432;2023-07-29T16:42:38;10.10;;;6.60;;